Bookmark and Share
Track history (hours):
 

Maersk Rosario

Last reported at 2014-Apr-12 18:33 UTC. Time now 2014-Apr-21 03:12 UTC.
Position N 25°46' W 079°45'.
Warning: this ship's position is 8 days out of date.

Length 161.1 m; beam 25 m; draft 9.5 m.

Type: Ship (hazmat cat A). MMSI: 304814000.

NotesDate/timePositionNaut miles runAvg speedWind from/ knotsBaromVisibWave heightAir tempDewpointWater temp
2014-Apr-12 18:33N 25°46' W 079°45'1616.1
2014-Apr-12 17:34N 25°58' W 079°57'1211.6
2014-Apr-12 16:34N 26°05' W 080°07'1 1.0
2014-Apr-12 15:24N 26°04' W 080°07'0 0.0
2014-Apr-12 14:27N 26°04' W 080°07'0 0.0
2014-Apr-12 13:27N 26°04' W 080°07'0 0.0
2014-Apr-12 12:27N 26°04' W 080°07'0 0.0
2014-Apr-12 11:30N 26°04' W 080°07'0 0.0
2014-Apr-12 10:30N 26°04' W 080°07'0 0.0
2014-Apr-12 09:30N 26°04' W 080°07'0 0.0
2014-Apr-12 08:33N 26°04' W 080°07'0 0.0
2014-Apr-12 07:15N 26°04' W 080°07'0 0.0
2014-Apr-12 06:21N 26°04' W 080°07'0 0.0
2014-Apr-12 05:30N 26°04' W 080°07'0 0.0
2014-Apr-12 04:32N 26°04' W 080°07'0 0.0
2014-Apr-12 03:23N 26°04' W 080°07'0 0.0
2014-Apr-12 02:23N 26°04' W 080°07'0 0.0
2014-Apr-12 01:26N 26°04' W 080°07'0 0.0
2014-Apr-12 00:33N 26°04' W 080°07'3 3.0
2014-Apr-11 23:33N 26°05' W 080°04'5 5.3
2014-Apr-11 22:33N 26°01' W 079°59'3 3.2
2014-Apr-11 21:33N 25°59' W 080°02'4 3.7
2014-Apr-11 20:33N 25°56' W 080°02'1918.8
2014-Apr-11 19:33N 25°38' W 079°55'  

Dump ship's entire track history

sailing weather and tide predictions

Maersk Rosario — V2BG2 — position and weather